Time;durP1;ratioP1;P1;durP2;ratioP2;P2;SDS_P1;SDS_P2;PMS_P1;PMS_P2;Temp;Humidity;BMP_temperature;BMP_pressure;BME280_temperature;BME280_humidity;BME280_pressure;Samples;Min_cycle;Max_cycle;Signal;HPM_P1;HPM_P2
2022/09/17 00:01:01;;;;;;;9.30;5.97;;;;;;;15.64;70.00;98933.59;7766091;32;40086;-78
2022/09/17 00:05:17;;;;;;;10.10;5.45;;;;;;;15.47;70.29;98939.94;7765970;32;39785;-77
2022/09/17 00:09:33;;;;;;;9.27;5.72;;;;;;;15.45;70.78;98953.19;7765456;32;38794;-78
2022/09/17 00:13:50;;;;;;;9.88;6.05;;;;;;;15.40;70.60;98948.69;7765868;32;37781;-77
2022/09/17 00:18:06;;;;;;;10.98;6.25;;;;;;;15.42;70.09;98966.75;7765463;32;39973;-78
2022/09/17 00:22:22;;;;;;;10.27;5.62;;;;;;;15.76;69.28;98955.78;7765867;32;40810;-78
2022/09/17 00:26:39;;;;;;;9.30;5.50;;;;;;;15.84;68.91;98940.38;7765660;32;38631;-77
2022/09/17 00:30:54;;;;;;;12.23;6.15;;;;;;;15.67;69.36;98919.22;7751645;32;36994;-78
2022/09/17 00:35:10;;;;;;;9.18;5.78;;;;;;;16.05;67.96;98907.47;7765546;32;39319;-77
2022/09/17 00:39:26;;;;;;;11.55;5.32;;;;;;;15.42;69.56;98914.56;7764665;32;40036;-77
2022/09/17 00:43:53;;;;;;;7.15;4.78;;;;;;;15.33;69.30;98906.34;7765129;32;38051;-77
2022/09/17 00:48:10;;;;;;;9.73;5.43;;;;;;;15.36;68.73;98916.69;7752476;32;36631;-76
2022/09/17 00:52:31;;;;;;;10.75;5.00;;;;;;;15.32;69.23;98897.31;7751706;32;39197;-77
2022/09/17 00:56:47;;;;;;;8.73;4.78;;;;;;;15.51;68.92;98901.66;7765396;32;39572;-78
2022/09/17 01:01:03;;;;;;;8.60;5.07;;;;;;;15.95;67.79;98908.66;7791975;32;37826;-77
2022/09/17 01:05:29;;;;;;;8.18;4.97;;;;;;;15.37;69.31;98919.09;7792483;32;36602;-78
2022/09/17 01:10:15;;;;;;;7.25;4.50;;;;;;;15.56;68.78;98913.25;7759772;32;39740;-79
2022/09/17 01:14:56;;;;;;;7.82;4.68;;;;;;;15.54;68.46;98901.00;7765250;32;40523;-80
2022/09/17 01:19:31;;;;;;;6.80;4.00;;;;;;;15.26;69.07;98906.84;7779340;32;38726;-79
2022/09/17 01:24:16;;;;;;;10.15;4.62;;;;;;;15.43;68.26;98903.25;7791962;32;36896;-79
2022/09/17 01:29:00;;;;;;;7.78;4.30;;;;;;;15.14;68.92;98901.19;7753712;32;40062;-78
2022/09/17 01:33:22;;;;;;;7.37;3.95;;;;;;;15.42;67.82;98895.34;7764914;32;40012;-79
2022/09/17 01:37:52;;;;;;;6.07;3.53;;;;;;;15.51;65.95;98885.16;7768463;32;37980;-79
2022/09/17 01:42:46;;;;;;;7.70;3.45;;;;;;;15.65;64.59;98885.78;7790689;32;37002;-79
2022/09/17 01:47:16;;;;;;;6.32;3.35;;;;;;;15.41;65.14;98900.03;7791872;32;39341;-80
2022/09/17 01:51:39;;;;;;;5.68;3.17;;;;;;;15.49;64.99;98895.69;7752210;32;40920;-80
2022/09/17 01:55:58;;;;;;;6.03;3.37;;;;;;;15.20;64.45;98900.72;7767702;32;37894;-79
2022/09/17 02:00:16;;;;;;;6.22;3.50;;;;;;;15.17;64.32;98906.03;7780731;32;37212;-80
2022/09/17 02:04:42;;;;;;;5.78;3.17;;;;;;;14.95;64.42;98905.09;7791313;32;39285;-80
2022/09/17 02:09:11;;;;;;;6.87;3.45;;;;;;;15.45;62.89;98895.50;7751140;32;40816;-80
2022/09/17 02:13:51;;;;;;;7.37;3.33;;;;;;;15.52;62.75;98895.84;7736626;32;38674;-79
2022/09/17 02:18:13;;;;;;;7.45;3.37;;;;;;;15.20;64.12;98906.19;7745362;32;37725;-80
2022/09/17 02:23:01;;;;;;;6.10;3.20;;;;;;;14.89;63.82;98900.88;7764088;32;39306;-80
2022/09/17 02:28:02;;;;;;;3.95;2.78;;;;;;;15.26;62.45;98904.09;7759573;32;40647;-80
2022/09/17 02:32:18;;;;;;;5.20;3.20;;;;;;;15.01;63.10;98892.81;7721369;32;38638;-80
2022/09/17 02:36:34;;;;;;;5.05;2.83;;;;;;;15.39;61.62;98886.63;7736666;32;37731;-80
2022/09/17 02:40:53;;;;;;;4.85;3.03;;;;;;;15.20;61.50;98876.00;7761427;32;39255;-79
2022/09/17 02:45:25;;;;;;;6.90;3.17;;;;;;;15.34;60.92;98878.56;7762394;32;39520;-80
2022/09/17 02:50:00;;;;;;;3.67;2.83;;;;;;;15.50;60.60;98891.78;7743485;32;37526;-80
2022/09/17 02:54:38;;;;;;;6.30;2.75;;;;;;;15.47;59.99;98879.53;7736239;32;36991;-80
2022/09/17 02:59:31;;;;;;;5.75;2.78;;;;;;;15.07;61.42;98876.19;7749185;32;39375;-80
2022/09/17 03:03:50;;;;;;;6.20;2.70;;;;;;;15.11;60.86;98860.66;7752798;32;40746;-80
2022/09/17 03:08:08;;;;;;;5.60;3.20;;;;;;;15.25;60.80;98858.56;7766096;32;36878;-80
2022/09/17 03:12:25;;;;;;;5.62;2.72;;;;;;;15.27;61.33;98855.50;7748965;32;36927;-80
2022/09/17 03:16:41;;;;;;;5.10;3.10;;;;;;;15.38;60.78;98857.56;7763871;32;40041;-80
2022/09/17 03:20:57;;;;;;;4.90;2.97;;;;;;;15.42;60.81;98838.50;7775984;32;39768;-83
2022/09/17 03:25:13;;;;;;;2.72;2.33;;;;;;;15.58;59.96;98838.78;7789219;32;37594;-80
2022/09/17 03:29:29;;;;;;;5.12;2.87;;;;;;;15.06;61.75;98830.66;7769979;32;36918;-78
2022/09/17 03:33:45;;;;;;;9.18;2.47;;;;;;;15.39;59.99;98836.41;7766263;32;39210;-78
2022/09/17 03:38:01;;;;;;;4.82;2.87;;;;;;;15.35;60.09;98847.22;7761732;32;39943;-79
2022/09/17 03:42:17;;;;;;;3.90;2.60;;;;;;;15.20;60.95;98831.28;7793437;32;37987;-78
2022/09/17 03:46:33;;;;;;;8.18;3.00;;;;;;;15.06;61.47;98816.94;7793107;32;37657;-77
2022/09/17 03:50:50;;;;;;;4.72;2.83;;;;;;;15.12;61.53;98810.13;7765828;32;39198;-77
2022/09/17 03:55:06;;;;;;;5.35;2.60;;;;;;;15.25;61.19;98808.34;7765855;32;40848;-81
2022/09/17 03:59:22;;;;;;;3.92;2.80;;;;;;;15.29;61.79;98814.78;7765965;32;37992;-81
2022/09/17 04:03:38;;;;;;;4.85;2.80;;;;;;;15.24;61.88;98818.50;7766100;32;36972;-77
2022/09/17 04:07:54;;;;;;;4.68;3.15;;;;;;;15.30;61.20;98833.69;7765451;32;39472;-78
2022/09/17 04:12:10;;;;;;;5.55;2.60;;;;;;;14.96;61.84;98832.59;7766243;32;40836;-78
2022/09/17 04:16:26;;;;;;;5.07;2.92;;;;;;;15.08;61.71;98829.19;7765561;32;37827;-78
2022/09/17 04:20:43;;;;;;;5.70;2.67;;;;;;;15.08;61.77;98828.38;7765742;32;36987;-78
2022/09/17 04:24:58;;;;;;;6.12;2.30;;;;;;;15.00;62.34;98844.56;7765900;32;39348;-78
2022/09/17 04:29:15;;;;;;;3.72;2.50;;;;;;;15.09;62.07;98825.31;7765584;32;40012;-78
2022/09/17 04:33:31;;;;;;;4.50;3.00;;;;;;;15.00;61.81;98819.03;7765722;32;38465;-77
2022/09/17 04:37:57;;;;;;;5.55;2.72;;;;;;;15.06;60.82;98806.75;7765419;32;37641;-79
2022/09/17 04:42:14;;;;;;;7.10;3.10;;;;;;;14.91;61.60;98797.06;7764258;32;39805;-78
2022/09/17 04:46:30;;;;;;;4.62;2.70;;;;;;;15.07;60.48;98802.06;7765321;32;40750;-78
2022/09/17 04:50:46;;;;;;;5.55;2.67;;;;;;;14.96;60.78;98794.16;7765449;32;38746;-78
2022/09/17 04:55:02;;;;;;;3.67;2.20;;;;;;;15.08;60.66;98787.22;7764878;32;36906;-78
2022/09/17 04:59:19;;;;;;;4.68;2.72;;;;;;;15.01;61.38;98790.47;7764988;32;40021;-78
2022/09/17 05:03:35;;;;;;;5.25;2.95;;;;;;;15.17;61.02;98786.03;7765344;32;40062;-79
2022/09/17 05:07:51;;;;;;;3.75;2.50;;;;;;;15.05;61.63;98787.88;7765008;32;38702;-79
2022/09/17 05:12:07;;;;;;;3.90;2.47;;;;;;;15.16;58.97;98783.63;7765111;32;36245;-79
2022/09/17 05:16:23;;;;;;;4.50;2.60;;;;;;;15.12;58.87;98799.16;7764953;32;39214;-78
2022/09/17 05:20:39;;;;;;;4.68;2.58;;;;;;;15.24;59.19;98818.50;7765229;32;39797;-78
2022/09/17 05:24:55;;;;;;;9.40;2.75;;;;;;;15.16;59.42;98828.38;7765056;32;38663;-77
2022/09/17 05:29:11;;;;;;;4.40;2.40;;;;;;;15.15;59.85;98837.72;7781995;32;36798;-78
2022/09/17 05:33:28;;;;;;;4.47;2.53;;;;;;;15.04;60.14;98836.47;7792261;32;40027;-78
2022/09/17 05:37:43;;;;;;;7.72;2.85;;;;;;;14.94;58.45;98839.53;7791868;32;40783;-78
2022/09/17 05:41:59;;;;;;;7.45;2.85;;;;;;;15.02;58.92;98839.53;7779357;32;38998;-80
2022/09/17 05:46:15;;;;;;;3.20;2.40;;;;;;;15.00;58.94;98841.81;7764238;32;37733;-79
2022/09/17 05:50:32;;;;;;;5.22;2.87;;;;;;;14.99;59.88;98834.69;7790143;32;40156;-79
2022/09/17 05:54:48;;;;;;;6.82;3.05;;;;;;;15.05;59.91;98859.22;7790327;32;40810;-79
2022/09/17 05:59:04;;;;;;;3.92;2.45;;;;;;;15.08;60.83;98844.88;7772159;32;37852;-79
2022/09/17 06:03:23;;;;;;;7.55;2.83;;;;;;;15.07;61.24;98846.78;7763942;32;36966;-82
2022/09/17 06:07:39;;;;;;;5.82;3.10;;;;;;;15.35;59.89;98830.75;7775250;32;39327;-79
2022/09/17 06:11:55;;;;;;;3.58;2.55;;;;;;;15.38;59.87;98826.53;7790647;32;40928;-81
2022/09/17 06:16:11;;;;;;;3.45;2.53;;;;;;;15.50;59.62;98825.88;7778149;32;38888;-82
2022/09/17 06:20:27;;;;;;;4.65;2.60;;;;;;;15.35;59.19;98830.75;7790762;32;37850;-82
2022/09/17 06:24:44;;;;;;;4.53;2.90;;;;;;;14.00;61.17;98837.13;7790407;32;37434;-82
2022/09/17 06:29:00;;;;;;;3.97;2.35;;;;;;;15.11;57.97;98846.94;7784038;32;40893;-80
2022/09/17 06:33:16;;;;;;;6.50;2.67;;;;;;;15.19;57.54;98844.19;7780036;32;37991;-81
2022/09/17 06:37:32;;;;;;;5.45;2.30;;;;;;;15.08;57.20;98847.59;7762760;32;37039;-81
2022/09/17 06:41:49;;;;;;;5.22;2.90;;;;;;;14.88;58.31;98862.78;7785690;32;39320;-80
2022/09/17 06:46:07;;;;;;;9.27;2.72;;;;;;;14.62;58.94;98875.34;7772822;32;40343;-80
2022/09/17 06:50:24;;;;;;;3.80;2.22;;;;;;;14.99;58.34;98888.78;7772078;32;38124;-81
2022/09/17 06:54:40;;;;;;;4.18;2.58;;;;;;;15.18;57.48;98885.72;7777921;32;36933;-81
2022/09/17 06:58:56;;;;;;;3.67;2.30;;;;;;;15.31;57.51;98901.19;7775245;32;40024;-80
2022/09/17 07:03:12;;;;;;;4.25;2.50;;;;;;;15.32;58.12;98891.03;7762242;32;40739;-81
2022/09/17 07:07:28;;;;;;;4.45;2.80;;;;;;;15.63;58.18;98874.31;7764459;32;37898;-82
2022/09/17 07:11:44;;;;;;;4.68;2.20;;;;;;;15.46;58.37;98879.84;7784070;32;36887;-81
2022/09/17 07:16:02;;;;;;;5.85;2.80;;;;;;;15.60;56.93;98877.69;7792892;32;39185;-81
2022/09/17 07:20:18;;;;;;;3.67;2.55;;;;;;;15.37;56.84;98877.91;7792916;32;40009;-81
2022/09/17 07:24:34;;;;;;;5.07;2.92;;;;;;;15.25;57.21;98875.03;7780172;32;38679;-81
2022/09/17 07:28:50;;;;;;;5.15;2.28;;;;;;;14.94;59.15;98867.78;7765830;32;36904;-86
2022/09/17 07:33:06;;;;;;;4.28;2.62;;;;;;;15.33;57.76;98860.50;7765777;32;39398;-84
2022/09/17 07:37:22;;;;;;;5.43;2.85;;;;;;;14.75;58.81;98850.84;7765616;32;39761;-84
2022/09/17 07:41:39;;;;;;;3.15;2.00;;;;;;;15.12;57.17;98832.88;7777137;32;37910;-82
2022/09/17 07:45:57;;;;;;;4.78;2.53;;;;;;;15.45;56.44;98831.53;7762255;32;36750;-83
2022/09/17 07:50:13;;;;;;;3.20;2.10;;;;;;;15.55;56.33;98861.41;7765732;32;39109;-80
2022/09/17 07:54:29;;;;;;;6.35;2.80;;;;;;;14.95;57.08;98893.28;7780234;32;40034;-80
2022/09/17 07:58:45;;;;;;;3.42;2.10;;;;;;;15.22;56.00;98886.66;7792392;32;38631;-81
2022/09/17 08:03:01;;;;;;;5.97;2.60;;;;;;;15.67;55.65;98889.00;7791146;32;37647;-81
2022/09/17 08:07:17;;;;;;;3.78;2.30;;;;;;;15.63;56.34;98882.56;7792278;32;39307;-81
2022/09/17 08:11:33;;;;;;;5.03;2.55;;;;;;;15.49;55.46;98884.69;7773354;32;40827;-76
2022/09/17 08:16:14;;;;;;;5.68;2.55;;;;;;;14.82;56.71;98906.84;7764747;32;38135;-79
2022/09/17 08:20:30;;;;;;;5.18;2.62;;;;;;;14.93;57.20;98915.56;7765219;32;37954;-79
2022/09/17 08:24:47;;;;;;;5.78;2.80;;;;;;;15.01;56.92;98924.94;7765150;32;39160;-80
2022/09/17 08:29:03;;;;;;;7.43;2.80;;;;;;;14.97;57.84;98924.78;7787043;32;39955;-82
2022/09/17 08:33:19;;;;;;;4.53;2.83;;;;;;;14.89;58.16;98924.78;7776295;32;37496;-81
2022/09/17 08:37:35;;;;;;;6.20;2.67;;;;;;;15.15;57.45;98930.28;7765659;32;38086;-78
2022/09/17 08:42:16;;;;;;;5.18;2.80;;;;;;;14.99;57.30;98938.97;7766320;32;39381;-79
2022/09/17 08:46:49;;;;;;;4.72;2.70;;;;;;;14.44;59.24;98928.53;7774327;32;40723;-80
2022/09/17 08:51:25;;;;;;;7.78;3.10;;;;;;;14.76;57.64;98913.63;7792607;32;37883;-81
2022/09/17 08:56:01;;;;;;;4.97;2.90;;;;;;;14.45;58.25;98899.97;7742927;32;37010;-81
2022/09/17 09:00:22;;;;;;;3.97;2.92;;;;;;;15.22;56.53;98886.66;7791947;32;40020;-80
2022/09/17 09:04:50;;;;;;;5.32;2.75;;;;;;;14.52;58.41;98892.09;7772363;32;38925;-80
2022/09/17 09:09:15;;;;;;;9.75;3.20;;;;;;;15.00;56.67;98884.88;7764627;32;38719;-80
2022/09/17 09:13:44;;;;;;;7.22;3.12;;;;;;;14.90;57.46;98886.03;7751381;32;37512;-81
2022/09/17 09:18:20;;;;;;;7.07;3.50;;;;;;;15.17;56.63;98898.59;7764616;32;37597;-78
2022/09/17 09:22:48;;;;;;;7.82;3.03;;;;;;;15.08;58.83;98903.31;7764501;32;40041;-79
2022/09/17 09:27:26;;;;;;;5.68;2.85;;;;;;;15.16;56.67;98916.22;7773961;32;39872;-79
2022/09/17 09:32:07;;;;;;;7.45;3.20;;;;;;;15.16;56.48;98904.41;7763696;32;37187;-79
2022/09/17 09:36:32;;;;;;;4.40;2.70;;;;;;;15.52;55.10;98897.75;7780789;32;39238;-80
2022/09/17 09:40:57;;;;;;;5.32;2.83;;;;;;;15.28;56.22;98901.03;7786012;32;40068;-80
2022/09/17 09:45:25;;;;;;;5.28;2.60;;;;;;;15.07;57.06;98895.37;7758693;32;37604;-79
2022/09/17 09:49:44;;;;;;;8.85;2.75;;;;;;;15.29;56.73;98892.47;7754716;32;37329;-77
2022/09/17 09:54:27;;;;;;;7.18;2.40;;;;;;;15.46;56.66;98891.62;7777759;32;38157;-78
2022/09/17 09:58:43;;;;;;;2.93;1.93;;;;;;;15.25;56.00;98896.19;7767958;32;39675;-77
2022/09/17 10:03:22;;;;;;;4.37;2.00;;;;;;;14.71;54.92;98910.22;7790478;32;37878;-77
2022/09/17 10:07:47;;;;;;;3.65;1.73;;;;;;;14.82;52.75;98917.03;7765887;32;37353;-77
2022/09/17 10:12:07;;;;;;;3.22;1.80;;;;;;;15.18;52.66;98913.16;7729833;32;39481;-78
2022/09/17 10:16:25;;;;;;;3.28;1.60;;;;;;;14.81;53.74;98923.63;7734003;32;40033;-78
2022/09/17 10:20:56;;;;;;;4.75;1.75;;;;;;;15.43;51.82;98907.97;7731515;32;37265;-77
2022/09/17 10:25:24;;;;;;;4.72;1.80;;;;;;;15.66;49.18;98901.13;7736007;32;36936;-82
2022/09/17 10:30:16;;;;;;;2.25;1.45;;;;;;;15.85;49.24;98900.78;7735853;32;39349;-82
2022/09/17 10:34:33;;;;;;;7.50;1.70;;;;;;;16.01;48.12;98903.00;7703831;32;40847;-83
2022/09/17 10:38:49;;;;;;;5.57;2.00;;;;;;;16.43;46.50;98895.66;7721650;32;38575;-84
2022/09/17 10:43:15;;;;;;;4.55;1.75;;;;;;;16.41;49.16;98864.91;7739880;32;36615;-84
2022/09/17 10:47:40;;;;;;;3.92;1.67;;;;;;;16.49;50.46;98852.25;7738482;32;39207;-82
2022/09/17 10:52:09;;;;;;;3.28;1.60;;;;;;;16.47;51.07;98871.84;7737938;32;40901;-81
2022/09/17 10:56:36;;;;;;;4.15;2.08;;;;;;;16.42;49.58;98884.97;7738224;32;38411;-82
2022/09/17 11:01:21;;;;;;;4.75;1.98;;;;;;;16.62;48.73;98880.66;7736590;32;37000;-81
2022/09/17 11:06:02;;;;;;;5.03;2.00;;;;;;;16.19;50.60;98856.97;7737178;32;39241;-82
2022/09/17 11:10:30;;;;;;;8.90;1.92;;;;;;;16.76;48.75;98837.16;7755449;32;40067;-81
2022/09/17 11:14:55;;;;;;;7.85;1.92;;;;;;;16.71;47.66;98829.09;7773836;32;36970;-82
2022/09/17 11:19:37;;;;;;;2.55;1.60;;;;;;;16.49;48.27;98831.06;7793314;32;36606;-82
2022/09/17 11:24:07;;;;;;;5.68;1.75;;;;;;;16.87;46.09;98830.13;7765599;32;38938;-81
2022/09/17 11:28:42;;;;;;;4.40;1.77;;;;;;;16.61;46.04;98840.50;7784883;32;40491;-81
2022/09/17 11:33:31;;;;;;;6.18;1.60;;;;;;;16.61;46.50;98835.00;7793664;32;37860;-81
2022/09/17 11:38:14;;;;;;;3.60;1.83;;;;;;;15.77;47.57;98822.72;7791924;32;37000;-83
2022/09/17 11:42:41;;;;;;;3.58;1.70;;;;;;;16.49;46.21;98835.75;7793659;32;39308;-82
2022/09/17 11:47:13;;;;;;;3.62;1.80;;;;;;;16.63;45.53;98828.03;7783410;32;39776;-81
2022/09/17 11:51:36;;;;;;;6.85;1.80;;;;;;;16.01;46.49;98835.06;7753424;32;38483;-81
2022/09/17 11:55:56;;;;;;;;;;;;;;;16.69;46.72;98834.97;7766499;32;36991;-82
2022/09/17 12:00:17;;;;;;;1.50;1.20;;;;;;;16.83;46.65;98820.09;7766495;32;39341;-81
2022/09/17 12:04:58;;;;;;;3.15;1.60;;;;;;;16.73;45.18;98799.31;7778030;32;39146;-82
2022/09/17 12:09:24;;;;;;;4.00;1.95;;;;;;;16.38;45.81;98787.78;7780771;32;38197;-81
2022/09/17 12:13:51;;;;;;;5.00;1.67;;;;;;;16.45;44.89;98771.53;7779675;32;37713;-82
2022/09/17 12:18:39;;;;;;;3.85;1.67;;;;;;;16.51;46.28;98765.50;7793158;32;40018;-81
2022/09/17 12:22:57;;;;;;;3.03;1.65;;;;;;;16.41;47.00;98776.91;7764608;32;40858;-79
2022/09/17 12:27:22;;;;;;;5.47;2.65;;;;;;;16.69;46.57;98770.84;7752291;32;36842;-81
2022/09/17 12:32:08;;;;;;;4.12;1.87;;;;;;;16.13;47.27;98744.44;7769277;32;36114;-79
2022/09/17 12:36:31;;;;;;;4.32;1.75;;;;;;;16.59;46.29;98717.06;7778596;32;39398;-80
2022/09/17 12:40:57;;;;;;;;;;;;;;;16.32;46.88;98729.41;7793199;32;40505;-79
2022/09/17 12:45:29;;;;;;;4.80;2.12;;;;;;;16.52;46.85;98725.84;7792954;32;38944;-79
2022/09/17 12:49:53;;;;;;;6.00;2.00;;;;;;;16.79;47.32;98711.84;7766239;32;37110;-80
2022/09/17 12:54:32;;;;;;;6.40;2.03;;;;;;;16.56;47.57;98700.38;7765765;32;39601;-80
2022/09/17 12:59:14;;;;;;;6.03;2.10;;;;;;;16.45;47.04;98673.31;7740131;32;40879;-81
2022/09/17 13:03:36;;;;;;;5.87;2.30;;;;;;;16.59;47.12;98663.94;7765401;32;38781;-81
2022/09/17 13:08:19;;;;;;;8.90;3.67;;;;;;;16.47;47.03;98681.22;7774555;32;36894;-80
2022/09/17 13:12:50;;;;;;;4.60;2.30;;;;;;;16.46;47.71;98696.13;7765446;32;39290;-81
2022/09/17 13:17:16;;;;;;;5.28;2.25;;;;;;;16.35;47.80;98720.50;7765317;32;40173;-83
2022/09/17 13:21:39;;;;;;;6.95;2.03;;;;;;;16.01;48.50;98721.56;7764127;32;37938;-84
2022/09/17 13:25:55;;;;;;;3.35;1.80;;;;;;;16.29;47.69;98725.38;7764206;32;37062;-83
2022/09/17 13:30:15;;;;;;;4.75;1.80;;;;;;;16.14;47.48;98717.72;7763675;32;39507;-83
2022/09/17 13:34:34;;;;;;;2.30;1.62;;;;;;;16.03;48.24;98711.84;7765037;32;40927;-81
2022/09/17 13:38:50;;;;;;;4.55;2.28;;;;;;;16.10;47.67;98727.78;7764762;32;38687;-82
2022/09/17 13:43:16;;;;;;;9.82;1.90;;;;;;;15.92;47.75;98727.13;7765182;32;36204;-83
2022/09/17 13:47:34;;;;;;;2.97;1.70;;;;;;;16.26;47.51;98720.53;7765512;32;39182;-81
2022/09/17 13:51:51;;;;;;;9.38;1.95;;;;;;;15.57;48.58;98697.06;7772187;32;38925;-83
2022/09/17 13:56:30;;;;;;;3.92;1.95;;;;;;;15.79;47.70;98689.69;7764633;32;36338;-82
2022/09/17 14:01:05;;;;;;;4.72;2.03;;;;;;;15.70;48.48;98665.78;7764637;32;36871;-80
2022/09/17 14:05:28;;;;;;;5.10;1.90;;;;;;;15.83;47.30;98679.62;7778145;32;39007;-81
2022/09/17 14:09:55;;;;;;;6.55;2.25;;;;;;;15.43;47.28;98699.22;7767724;32;40902;-82
2022/09/17 14:14:14;;;;;;;6.62;2.85;;;;;;;15.34;47.40;98689.09;7768410;32;38696;-83
2022/09/17 14:18:35;;;;;;;4.12;2.10;;;;;;;15.42;47.91;98676.47;7787625;32;36922;-81
2022/09/17 14:23:01;;;;;;;3.85;2.70;;;;;;;15.21;48.00;98690.09;7791207;32;39410;-82
2022/09/17 14:27:51;;;;;;;3.70;2.12;;;;;;;15.20;48.01;98680.28;7762626;32;39618;-83
2022/09/17 14:32:14;;;;;;;2.08;1.87;;;;;;;15.28;47.89;98676.69;7763386;32;38593;-83
2022/09/17 14:36:34;;;;;;;7.43;2.25;;;;;;;14.96;48.61;98684.41;7749521;32;37591;-85
2022/09/17 14:41:05;;;;;;;5.97;2.47;;;;;;;14.86;49.00;98698.47;7763967;32;40124;-83
2022/09/17 14:45:36;;;;;;;6.78;2.62;;;;;;;15.00;49.01;98712.81;7763565;32;39612;-81
2022/09/17 14:49:54;;;;;;;4.32;2.35;;;;;;;15.26;48.31;98717.38;7763625;32;37977;-81
2022/09/17 14:54:17;;;;;;;117.57;41.65;;;;;;;14.97;48.65;98731.84;7763140;32;37652;-83
2022/09/17 14:58:39;;;;;;;12.98;7.72;;;;;;;15.19;48.18;98723.41;7762891;32;39445;-82
2022/09/17 15:02:58;;;;;;;11.73;5.93;;;;;;;14.60;49.27;98732.22;7757511;32;41186;-82
2022/09/17 15:07:14;;;;;;;8.57;3.40;;;;;;;14.75;49.48;98735.63;7776887;32;37875;-81
2022/09/17 15:11:40;;;;;;;7.40;2.67;;;;;;;14.26;50.31;98720.13;7762780;32;37715;-83
2022/09/17 15:16:11;;;;;;;4.68;2.10;;;;;;;14.65;49.49;98715.63;7766064;32;40031;-82
2022/09/17 15:20:30;;;;;;;9.50;4.95;;;;;;;14.93;49.01;98709.75;7777272;32;40650;-82
2022/09/17 15:25:05;;;;;;;3.55;2.45;;;;;;;15.18;48.42;98699.81;7758675;32;36829;-84
2022/09/17 15:29:27;;;;;;;3.20;1.98;;;;;;;15.22;48.06;98710.94;7771065;32;37591;-79
2022/09/17 15:33:43;;;;;;;3.00;1.75;;;;;;;14.65;48.97;98725.78;7766443;32;39257;-79
2022/09/17 15:38:25;;;;;;;4.60;1.50;;;;;;;14.80;49.05;98721.75;7755254;32;40749;-80
2022/09/17 15:42:50;;;;;;;6.68;2.45;;;;;;;14.73;48.98;98718.66;7765248;32;38013;-80
2022/09/17 15:47:34;;;;;;;2.08;1.50;;;;;;;15.07;48.98;98701.31;7752511;32;37683;-80
2022/09/17 15:51:51;;;;;;;4.53;1.77;;;;;;;14.48;50.12;98701.91;7777198;32;39951;-80
2022/09/17 15:56:11;;;;;;;3.78;1.70;;;;;;;14.38;50.52;98694.00;7785670;32;40782;-80
2022/09/17 16:00:27;;;;;;;2.12;1.62;;;;;;;14.57;50.11;98679.94;7766966;32;37939;-81
2022/09/17 16:04:43;;;;;;;6.45;2.20;;;;;;;14.40;50.63;98675.28;7787832;32;37419;-83
2022/09/17 16:09:00;;;;;;;6.25;1.83;;;;;;;14.34;51.75;98655.47;7788300;32;39408;-81
2022/09/17 16:13:16;;;;;;;4.80;2.20;;;;;;;14.60;50.53;98655.44;7770228;32;39868;-78
2022/09/17 16:17:44;;;;;;;3.80;2.00;;;;;;;14.68;50.71;98650.25;7783274;32;38210;-82
2022/09/17 16:22:00;;;;;;;2.80;1.90;;;;;;;14.09;52.43;98659.84;7788185;32;36981;-78
2022/09/17 16:26:19;;;;;;;3.60;1.60;;;;;;;14.50;51.15;98649.47;7768090;32;39649;-84
2022/09/17 16:30:35;;;;;;;1.62;1.40;;;;;;;14.59;50.99;98650.28;7768098;32;39803;-77
2022/09/17 16:34:53;;;;;;;3.70;1.70;;;;;;;14.86;50.75;98649.06;7774521;32;38347;-85
2022/09/17 16:39:13;;;;;;;2.53;1.65;;;;;;;14.84;51.39;98654.09;7771454;32;37710;-83
2022/09/17 16:43:32;;;;;;;4.22;2.42;;;;;;;14.89;51.05;98664.88;7779214;32;39484;-83
2022/09/17 16:47:48;;;;;;;5.78;2.40;;;;;;;15.12;50.83;98648.19;7774381;32;40913;-84
2022/09/17 16:52:04;;;;;;;3.92;1.73;;;;;;;14.93;50.68;98613.69;7775553;32;38772;-83
2022/09/17 16:56:21;;;;;;;6.70;1.80;;;;;;;14.71;51.08;98608.47;7776909;32;35700;-83
2022/09/17 17:00:40;;;;;;;2.83;1.87;;;;;;;14.58;51.72;98630.28;7775425;32;39806;-84
2022/09/17 17:04:56;;;;;;;6.68;2.40;;;;;;;14.79;51.61;98635.06;7769329;32;39953;-83
2022/09/17 17:09:13;;;;;;;4.37;1.90;;;;;;;15.06;51.05;98647.56;7776259;32;38648;-82
2022/09/17 17:13:29;;;;;;;6.05;2.15;;;;;;;14.26;53.38;98656.25;7773727;32;36862;-84
2022/09/17 17:17:45;;;;;;;6.28;2.08;;;;;;;14.35;53.66;98646.13;7774046;32;39760;-85
2022/09/17 17:22:01;;;;;;;7.50;4.20;;;;;;;14.02;53.66;98626.63;7777988;32;40817;-84
2022/09/17 17:26:17;;;;;;;1.92;1.60;;;;;;;14.37;53.35;98638.38;7767985;32;38742;-84
2022/09/17 17:30:34;;;;;;;6.12;3.25;;;;;;;14.05;54.21;98661.59;7777734;32;37107;-83
2022/09/17 17:34:52;;;;;;;12.27;4.18;;;;;;;14.19;53.68;98645.78;7778141;32;40631;-83
2022/09/17 17:39:08;;;;;;;22.02;8.02;;;;;;;13.60;55.50;98649.00;7775021;32;40911;-83
2022/09/17 17:43:24;;;;;;;45.30;16.33;;;;;;;14.01;54.55;98625.81;7790805;32;38814;-82
2022/09/17 17:47:40;;;;;;;27.40;9.63;;;;;;;14.36;53.15;98627.72;7786382;32;37068;-82
2022/09/17 17:51:56;;;;;;;18.40;8.73;;;;;;;13.93;54.26;98634.84;7775297;32;39295;-82
2022/09/17 17:56:12;;;;;;;10.75;4.47;;;;;;;14.15;53.81;98647.56;7775431;32;40067;-80
2022/09/17 18:00:29;;;;;;;7.60;2.80;;;;;;;14.48;53.66;98655.28;7766307;32;37966;-81
2022/09/17 18:04:45;;;;;;;4.82;2.80;;;;;;;14.04;54.19;98684.66;7775288;32;36791;-82
2022/09/17 18:09:01;;;;;;;6.22;2.33;;;;;;;13.79;55.34;98698.00;7765484;32;357726;-82
2022/09/17 18:13:18;;;;;;;6.53;3.17;;;;;;;14.10;54.84;98699.81;7776265;32;40871;-80
2022/09/17 18:17:35;;;;;;;6.87;3.33;;;;;;;14.10;54.78;98699.81;7761439;32;38709;-80
2022/09/17 18:21:54;;;;;;;6.80;2.78;;;;;;;13.61;55.29;98710.06;7773572;32;36566;-80
2022/09/17 18:26:16;;;;;;;7.37;2.50;;;;;;;13.27;57.17;98738.88;7773941;32;38331;-82
2022/09/17 18:30:34;;;;;;;4.93;2.42;;;;;;;13.66;55.96;98729.88;7773672;32;40078;-84
2022/09/17 18:34:51;;;;;;;6.22;3.10;;;;;;;13.88;56.04;98726.22;7771488;32;37537;-81
2022/09/17 18:39:13;;;;;;;5.82;2.45;;;;;;;13.95;55.40;98727.69;7775348;32;36978;-83
2022/09/17 18:43:50;;;;;;;5.10;2.40;;;;;;;13.99;54.89;98723.19;7772676;32;39516;-83
2022/09/17 18:48:07;;;;;;;2.62;1.75;;;;;;;13.80;55.30;98723.47;7775676;32;39193;-85
2022/09/17 18:52:23;;;;;;;5.97;2.42;;;;;;;13.99;54.76;98726.72;7775028;32;38733;-84
2022/09/17 18:56:40;;;;;;;6.32;1.98;;;;;;;13.99;54.50;98721.25;7774703;32;36935;-83
2022/09/17 19:00:56;;;;;;;4.57;2.42;;;;;;;13.98;54.94;98718.81;7774816;32;38821;-83
2022/09/17 19:05:14;;;;;;;2.20;1.80;;;;;;;14.07;54.87;98711.41;7779008;32;39954;-84
2022/09/17 19:09:30;;;;;;;2.65;1.98;;;;;;;13.50;56.60;98704.87;7776785;32;38540;-83
2022/09/17 19:13:48;;;;;;;6.80;2.72;;;;;;;13.59;56.92;98701.34;7778850;32;35845;-84
2022/09/17 19:18:05;;;;;;;2.05;1.73;;;;;;;13.61;56.59;98712.78;7777617;32;39327;-83
2022/09/17 19:22:22;;;;;;;2.25;1.52;;;;;;;13.45;57.08;98702.28;7779023;32;40514;-84
2022/09/17 19:26:39;;;;;;;2.30;1.90;;;;;;;13.70;56.80;98694.44;7778195;32;36863;-84
2022/09/17 19:30:55;;;;;;;2.70;1.92;;;;;;;13.11;59.17;98695.50;7778582;32;37763;-86
2022/09/17 19:35:11;;;;;;;2.78;1.75;;;;;;;13.51;58.52;98689.25;7777975;32;39325;-86
2022/09/17 19:39:28;;;;;;;1.87;1.58;;;;;;;13.64;58.19;98699.28;7776798;32;38889;-82
2022/09/17 19:43:45;;;;;;;2.92;1.83;;;;;;;13.15;59.42;98710.16;7778982;32;38782;-84
2022/09/17 19:48:01;;;;;;;1.92;1.42;;;;;;;13.49;58.54;98718.88;7772947;32;37421;-87
2022/09/17 19:52:18;;;;;;;3.20;2.08;;;;;;;13.00;59.39;98731.66;7779936;32;38877;-86
2022/09/17 19:56:35;;;;;;;3.33;1.95;;;;;;;13.26;58.98;98731.78;7777675;32;41072;-86
2022/09/17 20:00:56;;;;;;;4.78;2.20;;;;;;;13.39;58.44;98736.37;7769790;32;38986;-86
2022/09/17 20:05:12;;;;;;;2.53;1.90;;;;;;;13.26;58.60;98727.13;7771423;32;37901;-82
2022/09/17 20:09:28;;;;;;;2.42;1.90;;;;;;;13.42;58.32;98730.28;7782619;32;38215;-85
2022/09/17 20:13:44;;;;;;;4.97;1.75;;;;;;;13.52;58.21;98740.97;7780911;32;41046;-84
2022/09/17 20:18:00;;;;;;;4.35;1.83;;;;;;;13.40;58.16;98742.66;7780051;32;37972;-83
2022/09/17 20:22:16;;;;;;;2.70;1.77;;;;;;;13.43;58.29;98742.84;7776566;32;37723;-83
2022/09/17 20:26:33;;;;;;;5.40;1.90;;;;;;;13.69;57.77;98737.47;7777811;32;39471;-83
2022/09/17 20:30:57;;;;;;;3.20;1.95;;;;;;;13.59;58.17;98745.97;7775839;32;40603;-81
2022/09/17 20:35:14;;;;;;;3.60;1.90;;;;;;;13.71;57.78;98754.38;7776255;32;38721;-80